sensor_id;sensor_type;location;lat;lon;timestamp;temperature;humidity
71994;DHT22;59861;50.268;8.648;2023-06-22T00:00:50;22.50;66.60
71994;DHT22;59861;50.268;8.648;2023-06-22T00:03:18;22.50;66.60
71994;DHT22;59861;50.268;8.648;2023-06-22T00:05:45;22.50;66.60
71994;DHT22;59861;50.268;8.648;2023-06-22T00:08:12;22.50;66.60
71994;DHT22;59861;50.268;8.648;2023-06-22T00:10:39;22.50;66.60
71994;DHT22;59861;50.268;8.648;2023-06-22T00:13:06;22.50;66.60
71994;DHT22;59861;50.268;8.648;2023-06-22T00:15:33;22.50;66.50
71994;DHT22;59861;50.268;8.648;2023-06-22T00:18:00;22.50;66.50
71994;DHT22;59861;50.268;8.648;2023-06-22T00:20:28;22.50;66.40
71994;DHT22;59861;50.268;8.648;2023-06-22T00:22:56;22.50;66.40
71994;DHT22;59861;50.268;8.648;2023-06-22T00:25:23;22.50;66.40
71994;DHT22;59861;50.268;8.648;2023-06-22T00:27:50;22.50;66.40
71994;DHT22;59861;50.268;8.648;2023-06-22T00:30:17;22.60;66.50
71994;DHT22;59861;50.268;8.648;2023-06-22T00:32:44;22.50;66.40
71994;DHT22;59861;50.268;8.648;2023-06-22T00:35:12;22.50;66.40
71994;DHT22;59861;50.268;8.648;2023-06-22T00:37:39;22.50;66.50
71994;DHT22;59861;50.268;8.648;2023-06-22T00:40:09;22.50;66.50
71994;DHT22;59861;50.268;8.648;2023-06-22T00:42:38;22.50;66.50
71994;DHT22;59861;50.268;8.648;2023-06-22T00:45:05;22.50;66.50
71994;DHT22;59861;50.268;8.648;2023-06-22T00:47:32;22.50;66.60
71994;DHT22;59861;50.268;8.648;2023-06-22T00:50:00;22.50;66.50
71994;DHT22;59861;50.268;8.648;2023-06-22T00:52:27;22.50;66.50
71994;DHT22;59861;50.268;8.648;2023-06-22T00:54:56;22.50;66.50
71994;DHT22;59861;50.268;8.648;2023-06-22T00:57:24;22.50;66.50
71994;DHT22;59861;50.268;8.648;2023-06-22T00:59:52;22.50;66.50
71994;DHT22;59861;50.268;8.648;2023-06-22T01:02:19;22.50;66.60
71994;DHT22;59861;50.268;8.648;2023-06-22T01:04:46;22.50;66.60
71994;DHT22;59861;50.268;8.648;2023-06-22T01:12:26;22.50;66.80
71994;DHT22;59861;50.268;8.648;2023-06-22T01:14:58;22.50;66.60
71994;DHT22;59861;50.268;8.648;2023-06-22T01:17:25;22.50;66.60
71994;DHT22;59861;50.268;8.648;2023-06-22T01:19:56;22.50;66.70
71994;DHT22;59861;50.268;8.648;2023-06-22T01:22:24;22.50;66.70
71994;DHT22;59861;50.268;8.648;2023-06-22T01:25:01;22.50;66.60
71994;DHT22;59861;50.268;8.648;2023-06-22T01:27:35;22.50;66.60
71994;DHT22;59861;50.268;8.648;2023-06-22T01:29:57;22.50;66.50
71994;DHT22;59861;50.268;8.648;2023-06-22T01:32:28;22.50;67.50
71994;DHT22;59861;50.268;8.648;2023-06-22T01:34:55;22.50;66.60
71994;DHT22;59861;50.268;8.648;2023-06-22T01:37:22;22.50;66.60
71994;DHT22;59861;50.268;8.648;2023-06-22T01:39:49;22.50;66.60
71994;DHT22;59861;50.268;8.648;2023-06-22T01:42:16;22.50;66.50
71994;DHT22;59861;50.268;8.648;2023-06-22T01:44:43;22.50;66.60
71994;DHT22;59861;50.268;8.648;2023-06-22T01:47:10;22.50;66.40
71994;DHT22;59861;50.268;8.648;2023-06-22T01:49:40;22.50;67.40
71994;DHT22;59861;50.268;8.648;2023-06-22T01:52:07;22.50;66.60
71994;DHT22;59861;50.268;8.648;2023-06-22T01:54:33;22.50;66.60
71994;DHT22;59861;50.268;8.648;2023-06-22T01:57:00;22.50;66.50
71994;DHT22;59861;50.268;8.648;2023-06-22T01:59:44;22.50;66.40
71994;DHT22;59861;50.268;8.648;2023-06-22T02:02:09;22.50;66.40
71994;DHT22;59861;50.268;8.648;2023-06-22T02:04:51;22.50;66.60
71994;DHT22;59861;50.268;8.648;2023-06-22T02:07:14;22.50;66.60
71994;DHT22;59861;50.268;8.648;2023-06-22T02:09:43;22.50;66.60
71994;DHT22;59861;50.268;8.648;2023-06-22T02:12:11;22.50;66.60
71994;DHT22;59861;50.268;8.648;2023-06-22T02:14:39;22.50;66.40
71994;DHT22;59861;50.268;8.648;2023-06-22T02:17:08;22.50;66.40
71994;DHT22;59861;50.268;8.648;2023-06-22T02:19:38;22.50;66.60
71994;DHT22;59861;50.268;8.648;2023-06-22T02:22:05;22.50;66.60
71994;DHT22;59861;50.268;8.648;2023-06-22T02:24:32;22.50;66.60
71994;DHT22;59861;50.268;8.648;2023-06-22T02:27:04;22.40;66.50
71994;DHT22;59861;50.268;8.648;2023-06-22T02:29:27;22.50;66.60
71994;DHT22;59861;50.268;8.648;2023-06-22T02:31:54;22.50;66.60
71994;DHT22;59861;50.268;8.648;2023-06-22T02:34:21;22.50;66.80
71994;DHT22;59861;50.268;8.648;2023-06-22T02:36:48;22.50;66.70
71994;DHT22;59861;50.268;8.648;2023-06-22T02:39:19;22.50;66.60
71994;DHT22;59861;50.268;8.648;2023-06-22T02:41:46;22.50;66.60
71994;DHT22;59861;50.268;8.648;2023-06-22T02:44:13;22.50;66.60
71994;DHT22;59861;50.268;8.648;2023-06-22T02:46:40;22.50;66.60
71994;DHT22;59861;50.268;8.648;2023-06-22T02:49:06;22.50;66.60
71994;DHT22;59861;50.268;8.648;2023-06-22T02:51:33;22.40;66.60
71994;DHT22;59861;50.268;8.648;2023-06-22T02:54:00;22.50;66.70
71994;DHT22;59861;50.268;8.648;2023-06-22T02:56:28;22.50;66.70
71994;DHT22;59861;50.268;8.648;2023-06-22T02:58:56;22.50;66.70
71994;DHT22;59861;50.268;8.648;2023-06-22T03:01:24;22.40;66.50
71994;DHT22;59861;50.268;8.648;2023-06-22T03:03:53;22.40;66.60
71994;DHT22;59861;50.268;8.648;2023-06-22T03:06:20;22.40;66.60
71994;DHT22;59861;50.268;8.648;2023-06-22T03:08:52;22.40;66.60
71994;DHT22;59861;50.268;8.648;2023-06-22T03:11:19;22.40;66.60
71994;DHT22;59861;50.268;8.648;2023-06-22T03:13:45;22.40;66.80
71994;DHT22;59861;50.268;8.648;2023-06-22T03:16:12;22.40;66.70
71994;DHT22;59861;50.268;8.648;2023-06-22T03:18:39;22.40;66.70
71994;DHT22;59861;50.268;8.648;2023-06-22T03:21:06;22.40;66.70
71994;DHT22;59861;50.268;8.648;2023-06-22T03:23:33;22.40;67.70
71994;DHT22;59861;50.268;8.648;2023-06-22T03:25:59;22.40;66.70
71994;DHT22;59861;50.268;8.648;2023-06-22T03:28:26;22.40;66.70
71994;DHT22;59861;50.268;8.648;2023-06-22T03:30:53;22.40;66.70
71994;DHT22;59861;50.268;8.648;2023-06-22T03:33:20;22.40;66.70
71994;DHT22;59861;50.268;8.648;2023-06-22T03:35:48;22.40;66.70
71994;DHT22;59861;50.268;8.648;2023-06-22T03:38:16;22.40;66.70
71994;DHT22;59861;50.268;8.648;2023-06-22T03:40:43;22.40;66.70
71994;DHT22;59861;50.268;8.648;2023-06-22T03:43:09;22.40;66.80
71994;DHT22;59861;50.268;8.648;2023-06-22T03:45:36;22.40;66.70
71994;DHT22;59861;50.268;8.648;2023-06-22T03:48:03;22.40;66.70
71994;DHT22;59861;50.268;8.648;2023-06-22T03:50:30;22.40;66.70
71994;DHT22;59861;50.268;8.648;2023-06-22T03:52:57;22.40;66.80
71994;DHT22;59861;50.268;8.648;2023-06-22T03:55:24;22.40;66.80
71994;DHT22;59861;50.268;8.648;2023-06-22T03:57:50;22.40;66.80
71994;DHT22;59861;50.268;8.648;2023-06-22T04:00:19;22.40;66.90
71994;DHT22;59861;50.268;8.648;2023-06-22T04:02:45;22.40;67.00
71994;DHT22;59861;50.268;8.648;2023-06-22T04:05:12;22.40;66.80
71994;DHT22;59861;50.268;8.648;2023-06-22T04:07:39;22.40;67.20
71994;DHT22;59861;50.268;8.648;2023-06-22T04:10:06;22.40;66.80
71994;DHT22;59861;50.268;8.648;2023-06-22T04:12:33;22.40;66.80
71994;DHT22;59861;50.268;8.648;2023-06-22T04:15:00;22.40;66.70
71994;DHT22;59861;50.268;8.648;2023-06-22T04:17:27;22.40;66.70
71994;DHT22;59861;50.268;8.648;2023-06-22T04:19:53;22.40;66.70
71994;DHT22;59861;50.268;8.648;2023-06-22T04:22:20;22.40;66.70
71994;DHT22;59861;50.268;8.648;2023-06-22T04:24:47;22.40;66.70
71994;DHT22;59861;50.268;8.648;2023-06-22T04:27:14;22.40;66.70
71994;DHT22;59861;50.268;8.648;2023-06-22T04:29:41;22.40;66.70
71994;DHT22;59861;50.268;8.648;2023-06-22T04:32:09;22.40;66.70
71994;DHT22;59861;50.268;8.648;2023-06-22T04:34:37;22.40;66.70
71994;DHT22;59861;50.268;8.648;2023-06-22T04:37:04;22.40;66.70
71994;DHT22;59861;50.268;8.648;2023-06-22T04:39:31;22.40;66.70
71994;DHT22;59861;50.268;8.648;2023-06-22T04:41:58;22.40;66.70
71994;DHT22;59861;50.268;8.648;2023-06-22T04:44:28;22.40;66.80
71994;DHT22;59861;50.268;8.648;2023-06-22T04:47:01;22.40;66.80
71994;DHT22;59861;50.268;8.648;2023-06-22T04:49:25;22.40;66.80
71994;DHT22;59861;50.268;8.648;2023-06-22T04:51:54;22.40;66.70
71994;DHT22;59861;50.268;8.648;2023-06-22T04:54:21;22.40;66.80
71994;DHT22;59861;50.268;8.648;2023-06-22T04:56:47;22.40;66.80
71994;DHT22;59861;50.268;8.648;2023-06-22T04:59:16;22.40;66.80
71994;DHT22;59861;50.268;8.648;2023-06-22T05:01:44;22.40;66.90
71994;DHT22;59861;50.268;8.648;2023-06-22T05:04:11;22.40;66.80
71994;DHT22;59861;50.268;8.648;2023-06-22T05:06:38;22.40;66.80
71994;DHT22;59861;50.268;8.648;2023-06-22T05:09:05;22.30;66.70
71994;DHT22;59861;50.268;8.648;2023-06-22T05:11:32;22.40;66.80
71994;DHT22;59861;50.268;8.648;2023-06-22T05:13:59;22.40;66.80
71994;DHT22;59861;50.268;8.648;2023-06-22T05:16:26;22.40;66.80
71994;DHT22;59861;50.268;8.648;2023-06-22T05:18:53;22.40;66.80
71994;DHT22;59861;50.268;8.648;2023-06-22T05:21:24;22.40;67.60
71994;DHT22;59861;50.268;8.648;2023-06-22T05:23:51;22.40;66.80
71994;DHT22;59861;50.268;8.648;2023-06-22T05:26:19;22.40;66.70
71994;DHT22;59861;50.268;8.648;2023-06-22T05:28:46;22.40;66.70
71994;DHT22;59861;50.268;8.648;2023-06-22T05:31:13;22.40;66.70
71994;DHT22;59861;50.268;8.648;2023-06-22T05:33:42;22.40;66.80
71994;DHT22;59861;50.268;8.648;2023-06-22T05:36:09;22.40;66.70
71994;DHT22;59861;50.268;8.648;2023-06-22T05:38:36;22.30;66.60
71994;DHT22;59861;50.268;8.648;2023-06-22T05:41:03;22.40;66.20
71994;DHT22;59861;50.268;8.648;2023-06-22T05:43:30;22.40;66.70
71994;DHT22;59861;50.268;8.648;2023-06-22T05:45:57;22.40;66.70
71994;DHT22;59861;50.268;8.648;2023-06-22T05:48:24;22.40;66.60
71994;DHT22;59861;50.268;8.648;2023-06-22T05:50:51;22.30;66.70
71994;DHT22;59861;50.268;8.648;2023-06-22T05:53:18;22.40;66.70
71994;DHT22;59861;50.268;8.648;2023-06-22T05:55:45;22.40;66.50
71994;DHT22;59861;50.268;8.648;2023-06-22T05:58:12;22.40;66.60
71994;DHT22;59861;50.268;8.648;2023-06-22T06:00:42;22.40;66.50
71994;DHT22;59861;50.268;8.648;2023-06-22T06:03:09;22.30;66.50
71994;DHT22;59861;50.268;8.648;2023-06-22T06:05:37;22.40;66.60
71994;DHT22;59861;50.268;8.648;2023-06-22T06:08:05;22.40;66.50
71994;DHT22;59861;50.268;8.648;2023-06-22T06:10:32;22.40;67.40
71994;DHT22;59861;50.268;8.648;2023-06-22T06:12:59;22.30;66.50
71994;DHT22;59861;50.268;8.648;2023-06-22T06:15:28;22.40;66.50
71994;DHT22;59861;50.268;8.648;2023-06-22T06:17:55;22.40;66.50
71994;DHT22;59861;50.268;8.648;2023-06-22T06:20:22;22.40;66.40
71994;DHT22;59861;50.268;8.648;2023-06-22T06:22:49;22.40;66.50
71994;DHT22;59861;50.268;8.648;2023-06-22T06:25:16;22.40;66.40
71994;DHT22;59861;50.268;8.648;2023-06-22T06:27:45;22.40;66.40
71994;DHT22;59861;50.268;8.648;2023-06-22T06:30:13;22.40;66.40
71994;DHT22;59861;50.268;8.648;2023-06-22T06:32:40;22.40;66.30
71994;DHT22;59861;50.268;8.648;2023-06-22T06:35:07;22.40;66.40
71994;DHT22;59861;50.268;8.648;2023-06-22T06:37:41;22.40;66.30
71994;DHT22;59861;50.268;8.648;2023-06-22T06:40:09;22.40;66.40
71994;DHT22;59861;50.268;8.648;2023-06-22T06:42:41;22.40;66.40
71994;DHT22;59861;50.268;8.648;2023-06-22T06:45:06;22.40;66.40
71994;DHT22;59861;50.268;8.648;2023-06-22T06:47:33;22.40;66.30
71994;DHT22;59861;50.268;8.648;2023-06-22T06:50:00;22.40;66.30
71994;DHT22;59861;50.268;8.648;2023-06-22T06:52:27;22.40;66.30
71994;DHT22;59861;50.268;8.648;2023-06-22T06:54:54;22.40;66.40
71994;DHT22;59861;50.268;8.648;2023-06-22T06:57:20;22.40;66.40
71994;DHT22;59861;50.268;8.648;2023-06-22T06:59:48;22.40;65.50
71994;DHT22;59861;50.268;8.648;2023-06-22T07:02:15;22.40;66.40
71994;DHT22;59861;50.268;8.648;2023-06-22T07:04:42;22.40;66.40
71994;DHT22;59861;50.268;8.648;2023-06-22T07:07:09;22.40;66.30
71994;DHT22;59861;50.268;8.648;2023-06-22T07:09:35;22.40;66.40
71994;DHT22;59861;50.268;8.648;2023-06-22T07:12:02;22.40;66.30
71994;DHT22;59861;50.268;8.648;2023-06-22T07:14:29;22.40;66.30
71994;DHT22;59861;50.268;8.648;2023-06-22T07:16:57;22.40;66.30
71994;DHT22;59861;50.268;8.648;2023-06-22T07:19:27;22.40;66.40
71994;DHT22;59861;50.268;8.648;2023-06-22T07:21:54;22.40;66.30
71994;DHT22;59861;50.268;8.648;2023-06-22T07:24:21;22.40;66.30
71994;DHT22;59861;50.268;8.648;2023-06-22T07:26:48;22.40;66.40
71994;DHT22;59861;50.268;8.648;2023-06-22T07:29:19;22.40;66.30
71994;DHT22;59861;50.268;8.648;2023-06-22T07:31:49;22.40;66.40
71994;DHT22;59861;50.268;8.648;2023-06-22T07:34:18;22.40;66.90
71994;DHT22;59861;50.268;8.648;2023-06-22T07:36:45;22.40;66.30
71994;DHT22;59861;50.268;8.648;2023-06-22T07:39:12;22.40;66.40
71994;DHT22;59861;50.268;8.648;2023-06-22T07:41:40;22.40;66.30
71994;DHT22;59861;50.268;8.648;2023-06-22T07:44:07;22.40;66.30
71994;DHT22;59861;50.268;8.648;2023-06-22T07:46:33;22.50;66.40
71994;DHT22;59861;50.268;8.648;2023-06-22T07:49:00;22.40;66.40
71994;DHT22;59861;50.268;8.648;2023-06-22T07:51:27;22.40;66.40
71994;DHT22;59861;50.268;8.648;2023-06-22T07:53:54;22.40;66.30
71994;DHT22;59861;50.268;8.648;2023-06-22T07:56:21;22.40;66.30
71994;DHT22;59861;50.268;8.648;2023-06-22T07:58:47;22.40;66.40
71994;DHT22;59861;50.268;8.648;2023-06-22T08:01:14;22.50;66.30
71994;DHT22;59861;50.268;8.648;2023-06-22T08:03:41;22.40;66.30
71994;DHT22;59861;50.268;8.648;2023-06-22T08:06:08;22.40;66.40
71994;DHT22;59861;50.268;8.648;2023-06-22T08:08:36;22.50;66.40
71994;DHT22;59861;50.268;8.648;2023-06-22T08:11:02;22.40;66.40
71994;DHT22;59861;50.268;8.648;2023-06-22T08:13:29;22.40;66.30
71994;DHT22;59861;50.268;8.648;2023-06-22T08:15:56;22.40;66.30
71994;DHT22;59861;50.268;8.648;2023-06-22T08:18:23;22.50;66.50
71994;DHT22;59861;50.268;8.648;2023-06-22T08:20:50;22.40;66.30
71994;DHT22;59861;50.268;8.648;2023-06-22T08:23:17;22.50;66.50
71994;DHT22;59861;50.268;8.648;2023-06-22T08:25:43;22.50;66.40
71994;DHT22;59861;50.268;8.648;2023-06-22T08:28:10;22.50;66.50
71994;DHT22;59861;50.268;8.648;2023-06-22T08:30:38;22.50;66.30
71994;DHT22;59861;50.268;8.648;2023-06-22T08:33:05;22.50;66.40
71994;DHT22;59861;50.268;8.648;2023-06-22T08:35:32;22.50;66.30
71994;DHT22;59861;50.268;8.648;2023-06-22T08:37:59;22.50;66.20
71994;DHT22;59861;50.268;8.648;2023-06-22T08:40:27;22.50;66.20
71994;DHT22;59861;50.268;8.648;2023-06-22T08:42:55;22.50;66.40
71994;DHT22;59861;50.268;8.648;2023-06-22T08:45:22;22.50;66.40
71994;DHT22;59861;50.268;8.648;2023-06-22T08:47:48;22.50;66.40
71994;DHT22;59861;50.268;8.648;2023-06-22T08:50:15;22.50;66.40
71994;DHT22;59861;50.268;8.648;2023-06-22T08:52:42;22.50;66.50
71994;DHT22;59861;50.268;8.648;2023-06-22T08:55:09;22.50;66.30
71994;DHT22;59861;50.268;8.648;2023-06-22T08:57:36;22.50;66.30
71994;DHT22;59861;50.268;8.648;2023-06-22T09:00:05;22.50;66.30
71994;DHT22;59861;50.268;8.648;2023-06-22T09:02:34;22.50;66.40
71994;DHT22;59861;50.268;8.648;2023-06-22T09:05:02;22.50;66.20
71994;DHT22;59861;50.268;8.648;2023-06-22T09:07:29;22.50;66.30
71994;DHT22;59861;50.268;8.648;2023-06-22T09:09:56;22.50;66.30
71994;DHT22;59861;50.268;8.648;2023-06-22T09:12:23;22.50;66.30
71994;DHT22;59861;50.268;8.648;2023-06-22T09:14:51;22.50;66.20
71994;DHT22;59861;50.268;8.648;2023-06-22T09:17:18;22.50;66.40
71994;DHT22;59861;50.268;8.648;2023-06-22T09:19:45;22.50;66.10
71994;DHT22;59861;50.268;8.648;2023-06-22T09:22:13;22.50;66.30
71994;DHT22;59861;50.268;8.648;2023-06-22T09:24:40;22.50;66.30
71994;DHT22;59861;50.268;8.648;2023-06-22T09:27:07;22.50;66.20
71994;DHT22;59861;50.268;8.648;2023-06-22T09:29:33;22.50;66.30
71994;DHT22;59861;50.268;8.648;2023-06-22T09:32:00;22.50;66.40
71994;DHT22;59861;50.268;8.648;2023-06-22T09:34:27;22.50;66.30
71994;DHT22;59861;50.268;8.648;2023-06-22T09:36:54;22.50;66.40
71994;DHT22;59861;50.268;8.648;2023-06-22T09:39:21;22.50;66.20
71994;DHT22;59861;50.268;8.648;2023-06-22T09:41:47;22.50;66.20
71994;DHT22;59861;50.268;8.648;2023-06-22T09:44:15;22.50;66.10
71994;DHT22;59861;50.268;8.648;2023-06-22T09:46:42;22.50;66.10
71994;DHT22;59861;50.268;8.648;2023-06-22T09:49:08;22.50;66.10
71994;DHT22;59861;50.268;8.648;2023-06-22T09:51:35;22.50;66.10
71994;DHT22;59861;50.268;8.648;2023-06-22T09:54:02;22.50;66.20
71994;DHT22;59861;50.268;8.648;2023-06-22T09:59:15;22.50;66.10
71994;DHT22;59861;50.268;8.648;2023-06-22T10:01:42;22.50;66.20
71994;DHT22;59861;50.268;8.648;2023-06-22T10:04:08;22.50;66.30
71994;DHT22;59861;50.268;8.648;2023-06-22T10:06:35;22.50;66.20
71994;DHT22;59861;50.268;8.648;2023-06-22T10:09:02;22.50;66.20
71994;DHT22;59861;50.268;8.648;2023-06-22T10:11:29;22.50;66.10
71994;DHT22;59861;50.268;8.648;2023-06-22T10:13:56;22.60;66.10
71994;DHT22;59861;50.268;8.648;2023-06-22T10:16:24;22.50;66.20
71994;DHT22;59861;50.268;8.648;2023-06-22T10:18:52;22.50;66.20
71994;DHT22;59861;50.268;8.648;2023-06-22T10:21:19;22.50;66.20
71994;DHT22;59861;50.268;8.648;2023-06-22T10:23:46;22.60;66.30
71994;DHT22;59861;50.268;8.648;2023-06-22T10:26:13;22.60;66.30
71994;DHT22;59861;50.268;8.648;2023-06-22T10:28:39;22.60;66.20
71994;DHT22;59861;50.268;8.648;2023-06-22T10:31:06;22.60;66.20
71994;DHT22;59861;50.268;8.648;2023-06-22T10:33:33;22.50;66.10
71994;DHT22;59861;50.268;8.648;2023-06-22T10:36:00;22.50;66.10
71994;DHT22;59861;50.268;8.648;2023-06-22T10:38:27;22.60;66.10
71994;DHT22;59861;50.268;8.648;2023-06-22T10:40:53;22.60;66.20
71994;DHT22;59861;50.268;8.648;2023-06-22T10:43:20;22.60;66.10
71994;DHT22;59861;50.268;8.648;2023-06-22T10:45:47;22.60;66.20
71994;DHT22;59861;50.268;8.648;2023-06-22T10:48:14;22.60;66.10
71994;DHT22;59861;50.268;8.648;2023-06-22T10:50:40;22.60;66.20
71994;DHT22;59861;50.268;8.648;2023-06-22T10:53:07;22.60;66.30
71994;DHT22;59861;50.268;8.648;2023-06-22T10:55:34;22.50;66.10
71994;DHT22;59861;50.268;8.648;2023-06-22T10:58:01;22.60;66.20
71994;DHT22;59861;50.268;8.648;2023-06-22T11:00:28;22.60;66.20
71994;DHT22;59861;50.268;8.648;2023-06-22T11:02:54;22.60;66.20
71994;DHT22;59861;50.268;8.648;2023-06-22T11:05:22;22.50;66.10
71994;DHT22;59861;50.268;8.648;2023-06-22T11:07:49;22.60;66.10
71994;DHT22;59861;50.268;8.648;2023-06-22T11:10:16;22.60;66.20
71994;DHT22;59861;50.268;8.648;2023-06-22T11:12:43;22.60;66.20
71994;DHT22;59861;50.268;8.648;2023-06-22T11:15:10;22.60;66.10
71994;DHT22;59861;50.268;8.648;2023-06-22T11:17:37;22.60;66.10
71994;DHT22;59861;50.268;8.648;2023-06-22T11:20:04;22.60;66.10
71994;DHT22;59861;50.268;8.648;2023-06-22T11:22:33;22.60;66.10
71994;DHT22;59861;50.268;8.648;2023-06-22T11:24:59;22.60;66.10
71994;DHT22;59861;50.268;8.648;2023-06-22T11:27:26;22.60;66.10
71994;DHT22;59861;50.268;8.648;2023-06-22T11:29:54;22.60;66.10
71994;DHT22;59861;50.268;8.648;2023-06-22T11:32:20;22.60;66.20
71994;DHT22;59861;50.268;8.648;2023-06-22T11:34:47;22.60;66.20
71994;DHT22;59861;50.268;8.648;2023-06-22T11:37:14;22.60;66.10
71994;DHT22;59861;50.268;8.648;2023-06-22T11:39:41;22.60;66.10
71994;DHT22;59861;50.268;8.648;2023-06-22T11:42:09;22.60;66.10
71994;DHT22;59861;50.268;8.648;2023-06-22T11:44:35;22.60;66.10
71994;DHT22;59861;50.268;8.648;2023-06-22T11:47:02;22.60;66.10
71994;DHT22;59861;50.268;8.648;2023-06-22T11:49:30;22.60;66.10
71994;DHT22;59861;50.268;8.648;2023-06-22T11:51:57;22.60;67.00
71994;DHT22;59861;50.268;8.648;2023-06-22T11:54:24;22.60;66.20
71994;DHT22;59861;50.268;8.648;2023-06-22T11:56:51;22.60;66.10
71994;DHT22;59861;50.268;8.648;2023-06-22T11:59:17;22.60;66.10
71994;DHT22;59861;50.268;8.648;2023-06-22T12:01:44;22.60;66.10
71994;DHT22;59861;50.268;8.648;2023-06-22T12:04:11;22.60;66.10
71994;DHT22;59861;50.268;8.648;2023-06-22T12:06:38;22.60;66.10
71994;DHT22;59861;50.268;8.648;2023-06-22T12:09:07;22.60;66.10
71994;DHT22;59861;50.268;8.648;2023-06-22T12:11:34;22.60;66.30
71994;DHT22;59861;50.268;8.648;2023-06-22T12:14:00;22.60;66.10
71994;DHT22;59861;50.268;8.648;2023-06-22T12:16:28;22.60;66.10
71994;DHT22;59861;50.268;8.648;2023-06-22T12:18:55;22.60;66.10
71994;DHT22;59861;50.268;8.648;2023-06-22T12:21:22;22.60;66.00
71994;DHT22;59861;50.268;8.648;2023-06-22T12:23:49;22.60;66.10
71994;DHT22;59861;50.268;8.648;2023-06-22T12:26:15;22.70;66.20
71994;DHT22;59861;50.268;8.648;2023-06-22T12:28:42;22.60;66.20
71994;DHT22;59861;50.268;8.648;2023-06-22T12:31:09;22.70;66.20
71994;DHT22;59861;50.268;8.648;2023-06-22T12:33:36;22.60;66.10
71994;DHT22;59861;50.268;8.648;2023-06-22T12:36:03;22.70;66.10
71994;DHT22;59861;50.268;8.648;2023-06-22T12:38:30;22.70;66.10
71994;DHT22;59861;50.268;8.648;2023-06-22T12:40:57;22.70;66.10
71994;DHT22;59861;50.268;8.648;2023-06-22T12:43:24;22.60;66.10
71994;DHT22;59861;50.268;8.648;2023-06-22T12:45:51;22.60;66.10
71994;DHT22;59861;50.268;8.648;2023-06-22T12:48:19;22.70;66.10
71994;DHT22;59861;50.268;8.648;2023-06-22T12:50:46;22.70;66.10
71994;DHT22;59861;50.268;8.648;2023-06-22T12:53:13;22.70;66.10
71994;DHT22;59861;50.268;8.648;2023-06-22T12:55:40;22.70;66.20
71994;DHT22;59861;50.268;8.648;2023-06-22T12:58:07;22.70;66.20
71994;DHT22;59861;50.268;8.648;2023-06-22T13:00:34;22.60;66.10
71994;DHT22;59861;50.268;8.648;2023-06-22T13:03:01;22.70;66.40
71994;DHT22;59861;50.268;8.648;2023-06-22T13:05:27;22.70;66.20
71994;DHT22;59861;50.268;8.648;2023-06-22T13:07:54;22.70;66.30
71994;DHT22;59861;50.268;8.648;2023-06-22T13:10:21;22.60;67.00
71994;DHT22;59861;50.268;8.648;2023-06-22T13:12:48;22.70;66.20
71994;DHT22;59861;50.268;8.648;2023-06-22T13:15:15;22.60;66.20
71994;DHT22;59861;50.268;8.648;2023-06-22T13:17:41;22.70;66.20
71994;DHT22;59861;50.268;8.648;2023-06-22T13:20:08;22.70;66.20
71994;DHT22;59861;50.268;8.648;2023-06-22T13:22:35;22.70;66.20
71994;DHT22;59861;50.268;8.648;2023-06-22T13:25:04;22.70;66.40
71994;DHT22;59861;50.268;8.648;2023-06-22T13:27:31;22.70;66.20
71994;DHT22;59861;50.268;8.648;2023-06-22T13:29:57;22.70;66.10
71994;DHT22;59861;50.268;8.648;2023-06-22T13:32:24;22.70;66.30
71994;DHT22;59861;50.268;8.648;2023-06-22T13:34:51;22.70;66.20
71994;DHT22;59861;50.268;8.648;2023-06-22T13:37:18;22.70;66.20
71994;DHT22;59861;50.268;8.648;2023-06-22T13:39:45;22.70;66.40
71994;DHT22;59861;50.268;8.648;2023-06-22T13:42:12;22.70;66.30
71994;DHT22;59861;50.268;8.648;2023-06-22T13:44:39;22.70;66.40
71994;DHT22;59861;50.268;8.648;2023-06-22T13:47:06;22.70;66.30
71994;DHT22;59861;50.268;8.648;2023-06-22T13:49:33;22.70;66.40
71994;DHT22;59861;50.268;8.648;2023-06-22T13:52:00;22.70;66.30
71994;DHT22;59861;50.268;8.648;2023-06-22T13:54:28;22.70;66.50
71994;DHT22;59861;50.268;8.648;2023-06-22T13:56:55;22.60;66.50
71994;DHT22;59861;50.268;8.648;2023-06-22T13:59:22;22.70;66.60
71994;DHT22;59861;50.268;8.648;2023-06-22T14:01:49;22.70;66.60
71994;DHT22;59861;50.268;8.648;2023-06-22T14:04:16;22.70;66.60
71994;DHT22;59861;50.268;8.648;2023-06-22T14:06:42;22.70;66.70
71994;DHT22;59861;50.268;8.648;2023-06-22T14:09:09;22.70;66.80
71994;DHT22;59861;50.268;8.648;2023-06-22T14:11:36;22.70;66.80
71994;DHT22;59861;50.268;8.648;2023-06-22T14:14:03;22.70;66.60
71994;DHT22;59861;50.268;8.648;2023-06-22T14:16:30;22.70;66.60
71994;DHT22;59861;50.268;8.648;2023-06-22T14:18:57;22.70;66.70
71994;DHT22;59861;50.268;8.648;2023-06-22T14:21:24;22.70;66.80
71994;DHT22;59861;50.268;8.648;2023-06-22T14:23:51;22.70;66.80
71994;DHT22;59861;50.268;8.648;2023-06-22T14:26:17;22.70;66.80
71994;DHT22;59861;50.268;8.648;2023-06-22T14:28:47;22.70;66.80
71994;DHT22;59861;50.268;8.648;2023-06-22T14:31:16;22.70;66.80
71994;DHT22;59861;50.268;8.648;2023-06-22T14:33:45;22.70;66.90
71994;DHT22;59861;50.268;8.648;2023-06-22T14:36:11;22.80;67.00
71994;DHT22;59861;50.268;8.648;2023-06-22T14:38:38;22.80;67.10
71994;DHT22;59861;50.268;8.648;2023-06-22T14:41:05;22.70;67.10
71994;DHT22;59861;50.268;8.648;2023-06-22T14:43:32;22.70;67.10
71994;DHT22;59861;50.268;8.648;2023-06-22T14:45:58;22.70;67.30
71994;DHT22;59861;50.268;8.648;2023-06-22T14:48:26;22.80;67.30
71994;DHT22;59861;50.268;8.648;2023-06-22T14:50:53;22.80;67.30
71994;DHT22;59861;50.268;8.648;2023-06-22T14:53:19;22.80;67.30
71994;DHT22;59861;50.268;8.648;2023-06-22T14:55:46;22.80;67.40
71994;DHT22;59861;50.268;8.648;2023-06-22T14:58:13;22.80;67.20
71994;DHT22;59861;50.268;8.648;2023-06-22T15:00:40;22.70;67.30
71994;DHT22;59861;50.268;8.648;2023-06-22T15:03:07;22.80;67.20
71994;DHT22;59861;50.268;8.648;2023-06-22T15:05:35;22.70;67.50
71994;DHT22;59861;50.268;8.648;2023-06-22T15:08:02;22.80;67.60
71994;DHT22;59861;50.268;8.648;2023-06-22T15:10:29;22.80;67.80
71994;DHT22;59861;50.268;8.648;2023-06-22T15:12:56;22.80;67.60
71994;DHT22;59861;50.268;8.648;2023-06-22T15:15:22;22.80;67.50
71994;DHT22;59861;50.268;8.648;2023-06-22T15:17:49;22.70;67.80
71994;DHT22;59861;50.268;8.648;2023-06-22T15:20:16;22.70;67.70
71994;DHT22;59861;50.268;8.648;2023-06-22T15:22:43;22.70;67.70
71994;DHT22;59861;50.268;8.648;2023-06-22T15:25:10;22.80;67.90
71994;DHT22;59861;50.268;8.648;2023-06-22T15:27:36;22.80;67.80
71994;DHT22;59861;50.268;8.648;2023-06-22T15:30:04;22.70;67.90
71994;DHT22;59861;50.268;8.648;2023-06-22T15:32:31;22.70;67.60
71994;DHT22;59861;50.268;8.648;2023-06-22T15:34:57;22.70;67.50
71994;DHT22;59861;50.268;8.648;2023-06-22T15:37:24;22.70;67.60